sensor_id;sensor_type;location;lat;lon;timestamp;pressure;altitude;pressure_sealevel;temperature;humidity
30614;BME280;17381;51.690;5.270;2023-05-10T00:00:45;100814.38;;;14.09;91.85
30614;BME280;17381;51.690;5.270;2023-05-10T00:03:47;100819.00;;;14.04;91.78
30614;BME280;17381;51.690;5.270;2023-05-10T00:06:43;100810.38;;;13.99;92.07
30614;BME280;17381;51.690;5.270;2023-05-10T00:09:20;100806.22;;;13.93;91.66
30614;BME280;17381;51.690;5.270;2023-05-10T00:12:07;100809.75;;;13.94;91.83
30614;BME280;17381;51.690;5.270;2023-05-10T00:14:59;100809.06;;;13.89;91.72
30614;BME280;17381;51.690;5.270;2023-05-10T00:17:49;100813.47;;;13.88;91.78
30614;BME280;17381;51.690;5.270;2023-05-10T00:20:30;100807.44;;;13.85;91.63
30614;BME280;17381;51.690;5.270;2023-05-10T00:23:18;100805.25;;;13.74;90.89
30614;BME280;17381;51.690;5.270;2023-05-10T00:26:16;100819.34;;;13.73;90.80
30614;BME280;17381;51.690;5.270;2023-05-10T00:29:08;100813.47;;;13.66;90.95
30614;BME280;17381;51.690;5.270;2023-05-10T00:32:07;100815.34;;;13.63;90.95
30614;BME280;17381;51.690;5.270;2023-05-10T00:35:06;100808.66;;;13.54;91.09
30614;BME280;17381;51.690;5.270;2023-05-10T00:37:58;100811.47;;;13.49;91.30
30614;BME280;17381;51.690;5.270;2023-05-10T00:40:55;100817.59;;;13.50;90.92
30614;BME280;17381;51.690;5.270;2023-05-10T00:43:43;100820.31;;;13.48;91.14
30614;BME280;17381;51.690;5.270;2023-05-10T00:46:21;100799.66;;;13.36;90.79
30614;BME280;17381;51.690;5.270;2023-05-10T00:49:09;100814.28;;;13.45;90.66
30614;BME280;17381;51.690;5.270;2023-05-10T00:52:11;100803.97;;;13.39;90.69
30614;BME280;17381;51.690;5.270;2023-05-10T00:55:21;100814.53;;;13.39;90.77
30614;BME280;17381;51.690;5.270;2023-05-10T00:58:08;100812.81;;;13.38;90.78
30614;BME280;17381;51.690;5.270;2023-05-10T01:01:30;100808.50;;;13.35;90.97
30614;BME280;17381;51.690;5.270;2023-05-10T01:04:28;100805.66;;;13.40;91.00
30614;BME280;17381;51.690;5.270;2023-05-10T01:07:32;100809.13;;;13.42;90.86
30614;BME280;17381;51.690;5.270;2023-05-10T01:10:21;100798.81;;;13.36;90.95
30614;BME280;17381;51.690;5.270;2023-05-10T01:13:06;100785.72;;;13.33;91.19
30614;BME280;17381;51.690;5.270;2023-05-10T01:16:04;100800.38;;;13.40;90.84
30614;BME280;17381;51.690;5.270;2023-05-10T01:19:01;100811.84;;;13.40;90.96
30614;BME280;17381;51.690;5.270;2023-05-10T01:32:27;100806.72;;;13.36;91.26
30614;BME280;17381;51.690;5.270;2023-05-10T01:35:31;100809.31;;;13.37;91.00
30614;BME280;17381;51.690;5.270;2023-05-10T01:42:39;100715.41;;;12.83;91.46
30614;BME280;17381;51.690;5.270;2023-05-10T01:48:25;100770.59;;;13.13;90.88
30614;BME280;17381;51.690;5.270;2023-05-10T01:51:28;100825.78;;;13.44;91.20
30614;BME280;17381;51.690;5.270;2023-05-10T01:54:22;100828.28;;;13.47;91.10
30614;BME280;17381;51.690;5.270;2023-05-10T01:57:05;100819.47;;;13.48;90.92
30614;BME280;17381;51.690;5.270;2023-05-10T02:00:12;100817.69;;;13.48;91.20
30614;BME280;17381;51.690;5.270;2023-05-10T02:03:15;100773.75;;;13.22;90.93
30614;BME280;17381;51.690;5.270;2023-05-10T02:06:20;100811.47;;;13.49;90.70
30614;BME280;17381;51.690;5.270;2023-05-10T02:09:18;100764.47;;;13.12;90.65
30614;BME280;17381;51.690;5.270;2023-05-10T02:12:42;100822.16;;;13.46;90.56
30614;BME280;17381;51.690;5.270;2023-05-10T02:15:38;100823.13;;;13.44;90.35
30614;BME280;17381;51.690;5.270;2023-05-10T02:18:37;100823.28;;;13.39;90.43
30614;BME280;17381;51.690;5.270;2023-05-10T02:21:38;100826.78;;;13.40;90.10
30614;BME280;17381;51.690;5.270;2023-05-10T02:24:37;100827.88;;;13.34;89.96
30614;BME280;17381;51.690;5.270;2023-05-10T02:27:45;100832.31;;;13.34;89.89
30614;BME280;17381;51.690;5.270;2023-05-10T02:30:41;100833.28;;;13.31;90.14
30614;BME280;17381;51.690;5.270;2023-05-10T02:33:39;100835.81;;;13.34;90.35
30614;BME280;17381;51.690;5.270;2023-05-10T02:36:54;100835.03;;;13.32;90.19
30614;BME280;17381;51.690;5.270;2023-05-10T02:39:54;100829.75;;;13.32;90.13
30614;BME280;17381;51.690;5.270;2023-05-10T02:42:48;100834.16;;;13.31;89.93
30614;BME280;17381;51.690;5.270;2023-05-10T02:45:44;100837.72;;;13.30;89.83
30614;BME280;17381;51.690;5.270;2023-05-10T02:48:41;100854.53;;;13.28;90.32
30614;BME280;17381;51.690;5.270;2023-05-10T02:51:32;100843.00;;;13.30;90.26
30614;BME280;17381;51.690;5.270;2023-05-10T02:54:23;100841.16;;;13.33;90.22
30614;BME280;17381;51.690;5.270;2023-05-10T02:57:30;100829.84;;;13.29;90.32
30614;BME280;17381;51.690;5.270;2023-05-10T03:00:08;100842.03;;;13.33;90.42
30614;BME280;17381;51.690;5.270;2023-05-10T03:02:47;100847.13;;;13.38;90.47
30614;BME280;17381;51.690;5.270;2023-05-10T03:05:41;100840.25;;;13.34;90.33
30614;BME280;17381;51.690;5.270;2023-05-10T03:08:45;100843.53;;;13.40;90.52
30614;BME280;17381;51.690;5.270;2023-05-10T03:15:22;100844.28;;;13.42;90.52
30614;BME280;17381;51.690;5.270;2023-05-10T03:18:21;100850.38;;;13.44;90.86
30614;BME280;17381;51.690;5.270;2023-05-10T03:22:01;100841.03;;;13.36;91.01
30614;BME280;17381;51.690;5.270;2023-05-10T03:25:17;100822.81;;;13.29;90.92
30614;BME280;17381;51.690;5.270;2023-05-10T03:28:11;100854.81;;;13.44;90.86
30614;BME280;17381;51.690;5.270;2023-05-10T03:31:04;100847.69;;;13.46;91.18
30614;BME280;17381;51.690;5.270;2023-05-10T03:33:57;100853.03;;;13.44;91.20
30614;BME280;17381;51.690;5.270;2023-05-10T03:36:49;100857.34;;;13.47;91.51
30614;BME280;17381;51.690;5.270;2023-05-10T03:40:02;100858.25;;;13.46;91.36
30614;BME280;17381;51.690;5.270;2023-05-10T03:42:55;100868.75;;;13.47;91.41
30614;BME280;17381;51.690;5.270;2023-05-10T03:45:39;100859.97;;;13.47;91.54
30614;BME280;17381;51.690;5.270;2023-05-10T03:48:50;100867.00;;;13.48;91.53
30614;BME280;17381;51.690;5.270;2023-05-10T03:51:35;100862.56;;;13.48;91.51
30614;BME280;17381;51.690;5.270;2023-05-10T03:54:32;100864.34;;;13.48;91.89
30614;BME280;17381;51.690;5.270;2023-05-10T03:57:40;100870.78;;;13.41;92.06
30614;BME280;17381;51.690;5.270;2023-05-10T04:00:32;100862.13;;;13.37;92.12
30614;BME280;17381;51.690;5.270;2023-05-10T04:03:52;100868.88;;;13.44;92.02
30614;BME280;17381;51.690;5.270;2023-05-10T04:06:25;100869.72;;;13.45;92.02
30614;BME280;17381;51.690;5.270;2023-05-10T04:12:34;100883.81;;;13.45;92.06
30614;BME280;17381;51.690;5.270;2023-05-10T04:15:30;100890.84;;;13.45;91.48
30614;BME280;17381;51.690;5.270;2023-05-10T04:18:23;100883.84;;;13.44;91.92
30614;BME280;17381;51.690;5.270;2023-05-10T04:21:19;100886.50;;;13.44;91.66
30614;BME280;17381;51.690;5.270;2023-05-10T04:24:18;100883.91;;;13.42;91.71
30614;BME280;17381;51.690;5.270;2023-05-10T04:26:59;100884.03;;;13.39;91.98
30614;BME280;17381;51.690;5.270;2023-05-10T04:30:13;100836.75;;;13.08;91.40
30614;BME280;17381;51.690;5.270;2023-05-10T04:33:24;100880.06;;;13.27;91.89
30614;BME280;17381;51.690;5.270;2023-05-10T04:36:11;100796.78;;;12.70;92.02
30614;BME280;17381;51.690;5.270;2023-05-10T04:39:07;100891.44;;;13.29;91.57
30614;BME280;17381;51.690;5.270;2023-05-10T04:42:02;100834.78;;;12.90;91.49
30614;BME280;17381;51.690;5.270;2023-05-10T04:44:51;100894.97;;;13.28;91.55
30614;BME280;17381;51.690;5.270;2023-05-10T04:47:44;100889.78;;;13.27;91.62
30614;BME280;17381;51.690;5.270;2023-05-10T04:50:29;100891.53;;;13.26;91.43
30614;BME280;17381;51.690;5.270;2023-05-10T04:53:15;100893.28;;;13.26;91.37
30614;BME280;17381;51.690;5.270;2023-05-10T04:55:59;100894.00;;;13.31;91.53
30614;BME280;17381;51.690;5.270;2023-05-10T04:58:33;100895.69;;;13.34;91.57
30614;BME280;17381;51.690;5.270;2023-05-10T05:01:39;100890.34;;;13.35;91.57
30614;BME280;17381;51.690;5.270;2023-05-10T05:04:33;100901.66;;;13.39;91.47
30614;BME280;17381;51.690;5.270;2023-05-10T05:07:41;100906.00;;;13.40;91.53
30614;BME280;17381;51.690;5.270;2023-05-10T05:10:47;100885.94;;;13.36;91.57
30614;BME280;17381;51.690;5.270;2023-05-10T05:13:42;100887.75;;;13.34;91.81
30614;BME280;17381;51.690;5.270;2023-05-10T05:16:31;100906.00;;;13.40;91.76
30614;BME280;17381;51.690;5.270;2023-05-10T05:19:23;100913.91;;;13.40;91.80
30614;BME280;17381;51.690;5.270;2023-05-10T05:22:32;100912.22;;;13.39;91.42
30614;BME280;17381;51.690;5.270;2023-05-10T05:25:41;100917.56;;;13.37;91.88
30614;BME280;17381;51.690;5.270;2023-05-10T05:28:39;100854.63;;;13.00;91.60
30614;BME280;17381;51.690;5.270;2023-05-10T05:31:44;100918.41;;;13.38;91.64
30614;BME280;17381;51.690;5.270;2023-05-10T05:34:29;100916.91;;;13.30;91.73
30614;BME280;17381;51.690;5.270;2023-05-10T05:37:29;100919.44;;;13.34;92.34
30614;BME280;17381;51.690;5.270;2023-05-10T05:40:39;100919.38;;;13.35;91.98
30614;BME280;17381;51.690;5.270;2023-05-10T05:43:58;100922.06;;;13.34;92.25
30614;BME280;17381;51.690;5.270;2023-05-10T05:46:52;100922.78;;;13.39;92.14
30614;BME280;17381;51.690;5.270;2023-05-10T05:49:51;100927.03;;;13.43;92.64
30614;BME280;17381;51.690;5.270;2023-05-10T05:52:49;100861.41;;;13.07;92.19
30614;BME280;17381;51.690;5.270;2023-05-10T05:55:40;100909.84;;;13.31;92.44
30614;BME280;17381;51.690;5.270;2023-05-10T05:58:44;100938.22;;;13.49;92.45
30614;BME280;17381;51.690;5.270;2023-05-10T06:01:46;100933.75;;;13.51;92.22
30614;BME280;17381;51.690;5.270;2023-05-10T06:04:32;100934.56;;;13.53;92.60
30614;BME280;17381;51.690;5.270;2023-05-10T06:07:31;100944.16;;;13.56;92.07
30614;BME280;17381;51.690;5.270;2023-05-10T06:10:17;100910.63;;;13.35;92.20
30614;BME280;17381;51.690;5.270;2023-05-10T06:13:26;100942.31;;;13.58;92.09
30614;BME280;17381;51.690;5.270;2023-05-10T06:16:45;100944.88;;;13.60;92.12
30614;BME280;17381;51.690;5.270;2023-05-10T06:19:32;100945.53;;;13.66;92.14
30614;BME280;17381;51.690;5.270;2023-05-10T06:22:25;100947.13;;;13.70;92.41
30614;BME280;17381;51.690;5.270;2023-05-10T06:25:11;100950.59;;;13.72;92.28
30614;BME280;17381;51.690;5.270;2023-05-10T06:28:04;100959.31;;;13.74;92.15
30614;BME280;17381;51.690;5.270;2023-05-10T06:31:04;100961.97;;;13.74;92.04
30614;BME280;17381;51.690;5.270;2023-05-10T06:33:46;100964.59;;;13.74;91.87
30614;BME280;17381;51.690;5.270;2023-05-10T06:36:40;100952.53;;;13.67;91.83
30614;BME280;17381;51.690;5.270;2023-05-10T06:39:18;100955.28;;;13.64;91.73
30614;BME280;17381;51.690;5.270;2023-05-10T06:41:53;100969.19;;;13.69;91.25
30614;BME280;17381;51.690;5.270;2023-05-10T06:44:48;100966.78;;;13.63;91.17
30614;BME280;17381;51.690;5.270;2023-05-10T06:47:37;100976.66;;;13.58;91.10
30614;BME280;17381;51.690;5.270;2023-05-10T06:50:18;100971.47;;;13.55;90.93
30614;BME280;17381;51.690;5.270;2023-05-10T06:53:03;100974.34;;;13.49;90.74
30614;BME280;17381;51.690;5.270;2023-05-10T06:55:56;100977.91;;;13.48;90.83
30614;BME280;17381;51.690;5.270;2023-05-10T06:58:34;100983.19;;;13.48;90.74
30614;BME280;17381;51.690;5.270;2023-05-10T07:01:06;100983.19;;;13.48;90.91
30614;BME280;17381;51.690;5.270;2023-05-10T07:03:38;100971.00;;;13.44;90.80
30614;BME280;17381;51.690;5.270;2023-05-10T07:06:17;100987.56;;;13.47;91.16
30614;BME280;17381;51.690;5.270;2023-05-10T07:08:49;100991.38;;;13.40;90.94
30614;BME280;17381;51.690;5.270;2023-05-10T07:11:28;100996.66;;;13.40;91.58
30614;BME280;17381;51.690;5.270;2023-05-10T07:14:05;100949.75;;;13.22;91.56
30614;BME280;17381;51.690;5.270;2023-05-10T07:16:55;100997.16;;;13.50;91.72
30614;BME280;17381;51.690;5.270;2023-05-10T07:19:29;101000.63;;;13.52;90.97
30614;BME280;17381;51.690;5.270;2023-05-10T07:22:05;101003.09;;;13.57;91.14
30614;BME280;17381;51.690;5.270;2023-05-10T07:24:35;100998.75;;;13.56;91.54
30614;BME280;17381;51.690;5.270;2023-05-10T07:27:09;100989.22;;;13.51;91.27
30614;BME280;17381;51.690;5.270;2023-05-10T07:29:37;100951.97;;;13.34;91.56
30614;BME280;17381;51.690;5.270;2023-05-10T07:32:18;100962.97;;;13.47;91.70
30614;BME280;17381;51.690;5.270;2023-05-10T07:35:01;101010.38;;;13.75;91.58
30614;BME280;17381;51.690;5.270;2023-05-10T07:37:33;101008.59;;;13.75;91.67
30614;BME280;17381;51.690;5.270;2023-05-10T07:40:13;101012.84;;;13.80;91.65
30614;BME280;17381;51.690;5.270;2023-05-10T07:42:51;101014.41;;;13.85;91.86
30614;BME280;17381;51.690;5.270;2023-05-10T07:45:28;101018.13;;;13.80;91.60
30614;BME280;17381;51.690;5.270;2023-05-10T07:47:57;101015.44;;;13.81;91.50
30614;BME280;17381;51.690;5.270;2023-05-10T07:50:25;100967.38;;;13.46;91.29
30614;BME280;17381;51.690;5.270;2023-05-10T07:53:12;101020.78;;;13.80;91.11
30614;BME280;17381;51.690;5.270;2023-05-10T07:55:58;101006.75;;;13.78;90.72
30614;BME280;17381;51.690;5.270;2023-05-10T07:58:34;101032.97;;;13.84;90.86
30614;BME280;17381;51.690;5.270;2023-05-10T08:01:13;101020.25;;;13.93;91.07
30614;BME280;17381;51.690;5.270;2023-05-10T08:03:58;101020.94;;;13.99;91.03
30614;BME280;17381;51.690;5.270;2023-05-10T08:06:35;101019.66;;;14.10;91.05
30614;BME280;17381;51.690;5.270;2023-05-10T08:09:10;101023.66;;;14.21;90.96
30614;BME280;17381;51.690;5.270;2023-05-10T08:11:43;101029.81;;;14.21;90.74
30614;BME280;17381;51.690;5.270;2023-05-10T08:14:13;101033.31;;;14.22;90.37
30614;BME280;17381;51.690;5.270;2023-05-10T08:17:04;101041.19;;;14.23;89.80
30614;BME280;17381;51.690;5.270;2023-05-10T08:20:19;101040.44;;;14.19;89.51
30614;BME280;17381;51.690;5.270;2023-05-10T08:23:17;101045.72;;;14.19;89.41
30614;BME280;17381;51.690;5.270;2023-05-10T08:26:15;101043.88;;;14.22;89.30
30614;BME280;17381;51.690;5.270;2023-05-10T08:29:30;101053.56;;;14.23;89.36
30614;BME280;17381;51.690;5.270;2023-05-10T08:32:45;101048.88;;;14.29;89.33
30614;BME280;17381;51.690;5.270;2023-05-10T08:35:28;100993.50;;;14.03;89.89
30614;BME280;17381;51.690;5.270;2023-05-10T08:38:18;101060.97;;;14.36;89.78
30614;BME280;17381;51.690;5.270;2023-05-10T08:41:05;101051.06;;;14.42;90.11
30614;BME280;17381;51.690;5.270;2023-05-10T08:43:51;101057.84;;;14.49;89.48
30614;BME280;17381;51.690;5.270;2023-05-10T08:46:37;101065.66;;;14.53;89.11
30614;BME280;17381;51.690;5.270;2023-05-10T08:49:07;101069.75;;;14.60;88.83
30614;BME280;17381;51.690;5.270;2023-05-10T08:51:44;101065.03;;;14.69;88.58
30614;BME280;17381;51.690;5.270;2023-05-10T08:54:34;101070.22;;;14.72;88.00
30614;BME280;17381;51.690;5.270;2023-05-10T08:57:25;101064.00;;;14.73;87.42
30614;BME280;17381;51.690;5.270;2023-05-10T09:03:26;101062.41;;;14.91;88.16
30614;BME280;17381;51.690;5.270;2023-05-10T09:09:25;101025.22;;;14.72;87.91
30614;BME280;17381;51.690;5.270;2023-05-10T09:12:02;101049.22;;;14.89;86.94
30614;BME280;17381;51.690;5.270;2023-05-10T09:15:19;101016.84;;;14.60;86.24
30614;BME280;17381;51.690;5.270;2023-05-10T09:17:54;101072.59;;;14.78;86.43
30614;BME280;17381;51.690;5.270;2023-05-10T09:20:27;101060.38;;;14.75;86.46
30614;BME280;17381;51.690;5.270;2023-05-10T09:22:53;101070.47;;;14.88;86.41
30614;BME280;17381;51.690;5.270;2023-05-10T09:25:30;101041.97;;;14.72;86.36
30614;BME280;17381;51.690;5.270;2023-05-10T09:28:07;101087.94;;;14.92;86.39
30614;BME280;17381;51.690;5.270;2023-05-10T09:30:57;101088.81;;;14.92;86.29
30614;BME280;17381;51.690;5.270;2023-05-10T09:33:26;101087.88;;;14.93;85.85
30614;BME280;17381;51.690;5.270;2023-05-10T09:36:19;101093.13;;;14.95;85.90
30614;BME280;17381;51.690;5.270;2023-05-10T09:39:04;101090.03;;;15.05;86.00
30614;BME280;17381;51.690;5.270;2023-05-10T09:41:55;101082.09;;;15.05;85.51
30614;BME280;17381;51.690;5.270;2023-05-10T09:44:41;101053.34;;;14.96;85.88
30614;BME280;17381;51.690;5.270;2023-05-10T09:47:23;101096.59;;;15.17;85.33
30614;BME280;17381;51.690;5.270;2023-05-10T09:49:57;101100.44;;;15.10;84.76
30614;BME280;17381;51.690;5.270;2023-05-10T09:53:25;101113.06;;;15.03;83.74
30614;BME280;17381;51.690;5.270;2023-05-10T09:55:56;101097.78;;;14.88;84.45
30614;BME280;17381;51.690;5.270;2023-05-10T09:58:22;101061.59;;;14.67;84.50
30614;BME280;17381;51.690;5.270;2023-05-10T10:01:15;101113.25;;;14.99;84.84
30614;BME280;17381;51.690;5.270;2023-05-10T10:03:45;101109.22;;;14.89;84.67
30614;BME280;17381;51.690;5.270;2023-05-10T10:06:23;101116.94;;;14.95;84.23
30614;BME280;17381;51.690;5.270;2023-05-10T10:09:11;101101.28;;;14.89;84.55
30614;BME280;17381;51.690;5.270;2023-05-10T10:11:38;101115.84;;;15.00;85.05
30614;BME280;17381;51.690;5.270;2023-05-10T10:14:18;101108.81;;;14.99;85.24
30614;BME280;17381;51.690;5.270;2023-05-10T10:16:54;101129.69;;;15.07;85.24
30614;BME280;17381;51.690;5.270;2023-05-10T10:19:20;101123.53;;;15.07;85.27
30614;BME280;17381;51.690;5.270;2023-05-10T10:21:49;101133.09;;;15.11;85.16
30614;BME280;17381;51.690;5.270;2023-05-10T10:24:47;101125.25;;;15.08;85.11
30614;BME280;17381;51.690;5.270;2023-05-10T10:28:24;101135.84;;;15.08;85.15
30614;BME280;17381;51.690;5.270;2023-05-10T10:34:38;101128.81;;;15.07;85.55
30614;BME280;17381;51.690;5.270;2023-05-10T10:37:19;101132.28;;;15.09;85.69
30614;BME280;17381;51.690;5.270;2023-05-10T10:40:02;101120.66;;;15.13;85.56
30614;BME280;17381;51.690;5.270;2023-05-10T10:46:18;101120.94;;;15.27;86.19
30614;BME280;17381;51.690;5.270;2023-05-10T10:49:08;101122.34;;;15.36;86.58
30614;BME280;17381;51.690;5.270;2023-05-10T10:52:20;101117.53;;;15.45;86.64
30614;BME280;17381;51.690;5.270;2023-05-10T10:55:31;101117.94;;;15.57;86.41
30614;BME280;17381;51.690;5.270;2023-05-10T10:58:10;101122.97;;;15.63;86.16
30614;BME280;17381;51.690;5.270;2023-05-10T11:00:42;101125.91;;;15.77;86.40
30614;BME280;17381;51.690;5.270;2023-05-10T11:03:24;101110.34;;;15.90;86.70
30614;BME280;17381;51.690;5.270;2023-05-10T11:06:03;101116.38;;;16.14;86.42
30614;BME280;17381;51.690;5.270;2023-05-10T11:09:24;101122.50;;;16.35;86.06
30614;BME280;17381;51.690;5.270;2023-05-10T11:11:53;101118.06;;;16.54;86.35
30614;BME280;17381;51.690;5.270;2023-05-10T11:14:25;101117.06;;;16.57;84.78
30614;BME280;17381;51.690;5.270;2023-05-10T11:16:56;101123.53;;;16.70;84.44
30614;BME280;17381;51.690;5.270;2023-05-10T11:20:13;101114.38;;;17.14;84.45
30614;BME280;17381;51.690;5.270;2023-05-10T11:23:13;101120.13;;;17.23;83.36
30614;BME280;17381;51.690;5.270;2023-05-10T11:26:09;101120.31;;;17.38;82.40
30614;BME280;17381;51.690;5.270;2023-05-10T11:28:56;101121.66;;;17.64;82.14
30614;BME280;17381;51.690;5.270;2023-05-10T11:31:34;101122.13;;;17.72;81.44
30614;BME280;17381;51.690;5.270;2023-05-10T11:34:09;101118.91;;;17.65;80.65
30614;BME280;17381;51.690;5.270;2023-05-10T11:36:46;101118.59;;;17.54;80.36
30614;BME280;17381;51.690;5.270;2023-05-10T11:39:34;101123.59;;;17.43;80.08
30614;BME280;17381;51.690;5.270;2023-05-10T11:42:09;101121.75;;;17.26;79.25
30614;BME280;17381;51.690;5.270;2023-05-10T11:45:08;101119.00;;;17.10;79.24
30614;BME280;17381;51.690;5.270;2023-05-10T11:51:08;101125.16;;;17.11;80.06
30614;BME280;17381;51.690;5.270;2023-05-10T11:53:49;101114.13;;;17.01;79.79
30614;BME280;17381;51.690;5.270;2023-05-10T11:56:23;101116.94;;;16.98;79.20
30614;BME280;17381;51.690;5.270;2023-05-10T11:58:57;101122.56;;;16.92;79.18
30614;BME280;17381;51.690;5.270;2023-05-10T12:01:48;101078.41;;;16.51;78.46
30614;BME280;17381;51.690;5.270;2023-05-10T12:04:30;101118.66;;;16.61;78.37
30614;BME280;17381;51.690;5.270;2023-05-10T12:07:08;101123.47;;;16.53;77.71
30614;BME280;17381;51.690;5.270;2023-05-10T12:10:03;101120.41;;;16.42;77.74
30614;BME280;17381;51.690;5.270;2023-05-10T12:12:52;101135.44;;;16.43;76.97
30614;BME280;17381;51.690;5.270;2023-05-10T12:15:39;101111.66;;;16.21;77.33
30614;BME280;17381;51.690;5.270;2023-05-10T12:18:29;101141.00;;;16.36;77.56
30614;BME280;17381;51.690;5.270;2023-05-10T12:21:13;101145.59;;;16.33;77.04
30614;BME280;17381;51.690;5.270;2023-05-10T12:24:13;101146.72;;;16.27;76.83
30614;BME280;17381;51.690;5.270;2023-05-10T12:26:57;101146.88;;;16.24;76.98
30614;BME280;17381;51.690;5.270;2023-05-10T12:29:43;101145.00;;;16.26;77.80
30614;BME280;17381;51.690;5.270;2023-05-10T12:32:37;101147.38;;;16.32;78.18
30614;BME280;17381;51.690;5.270;2023-05-10T12:36:22;101144.88;;;16.29;77.65
30614;BME280;17381;51.690;5.270;2023-05-10T12:39:59;101142.56;;;16.22;78.01
30614;BME280;17381;51.690;5.270;2023-05-10T12:42:42;101142.75;;;16.17;77.97
30614;BME280;17381;51.690;5.270;2023-05-10T12:45:31;101159.34;;;16.22;78.15
30614;BME280;17381;51.690;5.270;2023-05-10T12:48:09;101157.47;;;16.24;78.08
30614;BME280;17381;51.690;5.270;2023-05-10T12:50:39;101164.78;;;16.19;77.67
30614;BME280;17381;51.690;5.270;2023-05-10T12:53:14;101167.56;;;16.16;77.77
30614;BME280;17381;51.690;5.270;2023-05-10T12:55:59;101171.28;;;16.12;78.22
30614;BME280;17381;51.690;5.270;2023-05-10T12:59:52;101175.97;;;16.05;77.84
30614;BME280;17381;51.690;5.270;2023-05-10T13:02:22;101169.47;;;15.92;78.10
30614;BME280;17381;51.690;5.270;2023-05-10T13:05:06;101183.34;;;15.99;77.84
30614;BME280;17381;51.690;5.270;2023-05-10T13:07:55;101131.97;;;15.59;78.31
30614;BME280;17381;51.690;5.270;2023-05-10T13:10:51;101185.50;;;15.89;78.09
30614;BME280;17381;51.690;5.270;2023-05-10T13:13:43;101194.59;;;15.83;78.13
30614;BME280;17381;51.690;5.270;2023-05-10T13:16:19;101193.13;;;15.76;78.59
30614;BME280;17381;51.690;5.270;2023-05-10T13:18:59;101201.03;;;15.78;79.30
30614;BME280;17381;51.690;5.270;2023-05-10T13:21:26;101198.28;;;15.79;79.53
30614;BME280;17381;51.690;5.270;2023-05-10T13:24:35;101193.94;;;15.78;79.31
30614;BME280;17381;51.690;5.270;2023-05-10T13:27:21;101190.94;;;15.64;79.75
30614;BME280;17381;51.690;5.270;2023-05-10T13:29:58;101196.03;;;15.70;79.75
30614;BME280;17381;51.690;5.270;2023-05-10T13:32:39;101190.59;;;15.73;79.86
30614;BME280;17381;51.690;5.270;2023-05-10T13:35:37;101137.06;;;15.43;79.95
30614;BME280;17381;51.690;5.270;2023-05-10T13:38:31;101195.19;;;15.68;80.18
30614;BME280;17381;51.690;5.270;2023-05-10T13:41:10;101186.34;;;15.69;80.28
30614;BME280;17381;51.690;5.270;2023-05-10T13:44:11;101190.84;;;15.67;80.67
30614;BME280;17381;51.690;5.270;2023-05-10T13:47:05;101197.44;;;15.79;80.67
30614;BME280;17381;51.690;5.270;2023-05-10T13:50:10;101150.91;;;15.49;81.03
30614;BME280;17381;51.690;5.270;2023-05-10T13:53:02;101196.50;;;15.80;81.05
30614;BME280;17381;51.690;5.270;2023-05-10T13:56:16;101210.09;;;15.92;81.25
30614;BME280;17381;51.690;5.270;2023-05-10T13:59:00;101167.09;;;15.64;81.08
30614;BME280;17381;51.690;5.270;2023-05-10T14:01:53;101213.41;;;15.98;80.87
30614;BME280;17381;51.690;5.270;2023-05-10T14:04:19;101217.00;;;15.97;81.13
30614;BME280;17381;51.690;5.270;2023-05-10T14:07:15;101200.44;;;15.91;80.87
30614;BME280;17381;51.690;5.270;2023-05-10T14:09:54;101212.56;;;15.97;80.88
30614;BME280;17381;51.690;5.270;2023-05-10T14:12:25;101210.75;;;15.98;80.77
30614;BME280;17381;51.690;5.270;2023-05-10T14:14:57;101207.13;;;16.00;80.54
30614;BME280;17381;51.690;5.270;2023-05-10T14:17:27;101204.47;;;16.00;80.25
30614;BME280;17381;51.690;5.270;2023-05-10T14:20:06;101200.25;;;15.96;80.08
30614;BME280;17381;51.690;5.270;2023-05-10T14:23:03;101203.88;;;15.94;79.74
30614;BME280;17381;51.690;5.270;2023-05-10T14:25:56;101206.53;;;15.94;79.95
30614;BME280;17381;51.690;5.270;2023-05-10T14:28:44;101202.94;;;15.95;79.69
30614;BME280;17381;51.690;5.270;2023-05-10T14:36:02;101199.63;;;15.89;80.08
30614;BME280;17381;51.690;5.270;2023-05-10T14:38:41;101201.38;;;15.90;79.91
30614;BME280;17381;51.690;5.270;2023-05-10T14:41:26;101207.53;;;15.91;80.21
30614;BME280;17381;51.690;5.270;2023-05-10T14:43:57;101199.50;;;15.92;80.04
30614;BME280;17381;51.690;5.270;2023-05-10T14:46:33;101207.78;;;15.85;79.80
30614;BME280;17381;51.690;5.270;2023-05-10T14:53:28;101207.22;;;15.77;79.69
30614;BME280;17381;51.690;5.270;2023-05-10T14:56:30;101146.78;;;15.42;79.54
30614;BME280;17381;51.690;5.270;2023-05-10T14:59:44;101205.56;;;15.74;80.00
30614;BME280;17381;51.690;5.270;2023-05-10T15:02:54;101206.09;;;15.82;80.41
30614;BME280;17381;51.690;5.270;2023-05-10T15:05:41;101205.56;;;15.96;80.78
30614;BME280;17381;51.690;5.270;2023-05-10T15:08:55;101203.09;;;16.12;81.16
30614;BME280;17381;51.690;5.270;2023-05-10T15:17:45;101196.97;;;16.51;80.84
30614;BME280;17381;51.690;5.270;2023-05-10T15:23:31;101208.59;;;16.67;80.02
30614;BME280;17381;51.690;5.270;2023-05-10T15:26:25;101182.56;;;16.56;79.86
30614;BME280;17381;51.690;5.270;2023-05-10T15:29:17;101197.72;;;16.73;78.77
30614;BME280;17381;51.690;5.270;2023-05-10T15:32:26;101186.84;;;16.59;78.05
30614;BME280;17381;51.690;5.270;2023-05-10T15:35:01;101201.44;;;16.69;77.90
30614;BME280;17381;51.690;5.270;2023-05-10T15:37:36;101190.16;;;16.64;77.97
30614;BME280;17381;51.690;5.270;2023-05-10T15:40:08;101204.63;;;16.77;77.64
30614;BME280;17381;51.690;5.270;2023-05-10T15:43:07;101206.38;;;16.78;77.26
30614;BME280;17381;51.690;5.270;2023-05-10T15:46:22;101212.53;;;16.79;77.49
30614;BME280;17381;51.690;5.270;2023-05-10T15:49:11;101219.28;;;16.86;77.91